createdAt,value
2022-11-12T00:01:10.480Z,22.10
2022-11-12T00:03:37.927Z,20.33
2022-11-12T00:06:07.877Z,20.67
2022-11-12T00:08:37.815Z,17.20
2022-11-12T00:11:05.758Z,15.00
2022-11-12T00:13:33.721Z,20.02
2022-11-12T00:16:01.396Z,15.32
2022-11-12T00:18:29.357Z,21.20
2022-11-12T00:20:59.245Z,16.85
2022-11-12T00:23:26.465Z,16.48
2022-11-12T00:26:03.373Z,18.75
2022-11-12T00:28:36.214Z,17.80
2022-11-12T00:31:10.691Z,16.40
2022-11-12T00:33:42.526Z,18.52
2022-11-12T00:36:10.989Z,15.63
2022-11-12T00:38:38.295Z,17.33
2022-11-12T00:41:07.763Z,14.70
2022-11-12T00:43:37.351Z,20.35
2022-11-12T00:46:04.788Z,18.35
2022-11-12T00:48:32.460Z,17.35
2022-11-12T00:51:04.623Z,15.15
2022-11-12T00:53:32.070Z,17.38
2022-11-12T00:56:06.768Z,18.50
2022-11-12T00:58:35.983Z,15.95
2022-11-12T01:01:08.618Z,18.17
2022-11-12T01:03:39.855Z,21.52
2022-11-12T01:06:13.279Z,17.00
2022-11-12T01:11:13.901Z,14.50
2022-11-12T01:13:44.440Z,18.80
2022-11-12T01:16:19.786Z,16.13
2022-11-12T01:18:48.073Z,14.43
2022-11-12T01:21:15.383Z,12.88
2022-11-12T01:23:43.316Z,15.40
2022-11-12T01:26:16.159Z,12.68
2022-11-12T01:28:46.011Z,13.13
2022-11-12T01:31:18.995Z,12.77
2022-11-12T01:33:48.530Z,11.27
2022-11-12T01:36:17.859Z,14.13
2022-11-12T01:38:46.522Z,13.10
2022-11-12T01:41:20.666Z,14.20
2022-11-12T01:43:48.465Z,12.27
2022-11-12T01:46:21.980Z,15.13
2022-11-12T01:51:44.100Z,11.18
2022-11-12T01:56:42.621Z,10.70
2022-11-12T01:59:17.365Z,13.32
2022-11-12T02:01:44.577Z,16.20
2022-11-12T02:04:12.899Z,10.77
2022-11-12T02:06:42.213Z,11.80
2022-11-12T02:09:10.714Z,12.82
2022-11-12T02:11:38.032Z,12.05
2022-11-12T02:14:05.368Z,11.25
2022-11-12T02:16:43.648Z,10.80
2022-11-12T02:19:14.036Z,13.40
2022-11-12T02:21:42.365Z,11.80
2022-11-12T02:24:12.278Z,12.43
2022-11-12T02:26:44.565Z,12.85
2022-11-12T02:29:11.901Z,14.85
2022-11-12T02:31:39.235Z,10.85
2022-11-12T02:34:08.983Z,12.93
2022-11-12T02:36:36.182Z,11.65
2022-11-12T02:39:03.464Z,9.93
2022-11-12T02:41:32.809Z,11.02
2022-11-12T02:44:00.092Z,14.85
2022-11-12T02:46:27.312Z,12.30
2022-11-12T02:48:54.926Z,10.18
2022-11-12T02:51:22.123Z,12.18
2022-11-12T02:53:49.328Z,12.50
2022-11-12T02:56:18.768Z,11.85
2022-11-12T02:58:45.976Z,11.00
2022-11-12T03:01:13.662Z,12.10
2022-11-12T03:03:41.334Z,10.20
2022-11-12T03:06:08.581Z,12.50
2022-11-12T03:08:38.050Z,11.20
2022-11-12T03:11:13.645Z,11.55
2022-11-12T03:13:41.597Z,11.25
2022-11-12T03:16:09.624Z,11.15
2022-11-12T03:18:37.750Z,10.43
2022-11-12T03:21:08.846Z,16.38
2022-11-12T03:23:36.049Z,13.05
2022-11-12T03:26:04.259Z,13.35
2022-11-12T03:28:31.937Z,15.88
2022-11-12T03:31:00.522Z,12.38
2022-11-12T03:33:27.738Z,12.30
2022-11-12T03:35:54.963Z,15.43
2022-11-12T03:38:22.676Z,14.82
2022-11-12T03:40:50.330Z,18.23
2022-11-12T03:43:18.059Z,14.07
2022-11-12T03:45:45.235Z,12.13
2022-11-12T03:48:12.492Z,11.88
2022-11-12T03:50:42.551Z,13.00
2022-11-12T03:53:12.323Z,11.98
2022-11-12T03:55:39.544Z,13.02
2022-11-12T03:58:06.773Z,11.70
2022-11-12T04:00:34.563Z,13.95
2022-11-12T04:03:02.317Z,15.48
2022-11-12T04:05:48.117Z,13.45
2022-11-12T04:08:35.257Z,13.00
2022-11-12T04:11:12.580Z,12.90
2022-11-12T04:13:42.174Z,11.00
2022-11-12T04:16:34.001Z,13.20
2022-11-12T04:19:21.207Z,10.55
2022-11-12T04:21:51.063Z,11.93
2022-11-12T04:24:39.856Z,12.63
2022-11-12T04:27:08.603Z,11.50
2022-11-12T04:29:54.549Z,12.32
2022-11-12T04:32:22.128Z,14.43
2022-11-12T04:34:49.774Z,12.32
2022-11-12T04:37:21.081Z,11.88
2022-11-12T04:39:54.212Z,15.55
2022-11-12T04:42:39.809Z,13.13
2022-11-12T04:45:11.034Z,12.30
2022-11-12T04:47:40.348Z,12.93
2022-11-12T04:50:18.556Z,13.52
2022-11-12T04:52:45.736Z,16.13
2022-11-12T04:55:13.425Z,13.93
2022-11-12T04:57:41.176Z,12.45
2022-11-12T05:00:09.239Z,13.95
2022-11-12T05:02:36.431Z,12.50
2022-11-12T05:05:03.820Z,10.57
2022-11-12T05:07:33.315Z,10.90
2022-11-12T05:10:00.705Z,11.88
2022-11-12T05:12:27.898Z,9.70
2022-11-12T05:14:55.136Z,10.27
2022-11-12T05:17:22.348Z,11.00
2022-11-12T05:19:49.521Z,11.30
2022-11-12T05:22:42.157Z,11.82
2022-11-12T05:25:09.269Z,11.27
2022-11-12T05:27:41.094Z,12.77
2022-11-12T05:30:10.602Z,11.57
2022-11-12T05:32:40.720Z,9.30
2022-11-12T05:35:08.554Z,10.95
2022-11-12T05:37:35.780Z,11.93
2022-11-12T05:40:03.086Z,11.65
2022-11-12T05:42:32.730Z,11.70
2022-11-12T05:45:02.084Z,10.85
2022-11-12T05:47:29.287Z,11.30
2022-11-12T05:49:56.486Z,11.10
2022-11-12T05:52:23.704Z,8.77
2022-11-12T05:54:51.030Z,10.20
2022-11-12T05:57:20.448Z,9.77
2022-11-12T05:59:47.636Z,10.07
2022-11-12T06:02:14.871Z,11.52
2022-11-12T06:04:42.163Z,9.32
2022-11-12T06:07:09.884Z,11.85
2022-11-12T06:09:39.393Z,10.45
2022-11-12T06:12:09.093Z,11.65
2022-11-12T06:14:36.708Z,11.02
2022-11-12T06:17:06.043Z,9.57
2022-11-12T06:19:33.250Z,12.65
2022-11-12T06:22:00.458Z,11.32
2022-11-12T06:24:34.689Z,9.68
2022-11-12T06:27:05.163Z,10.02
2022-11-12T06:29:32.507Z,13.32
2022-11-12T06:32:00.097Z,11.13
2022-11-12T06:34:27.520Z,8.63
2022-11-12T06:36:54.692Z,11.88
2022-11-12T06:39:21.875Z,10.32
2022-11-12T06:41:49.135Z,9.27
2022-11-12T06:44:21.784Z,13.73
2022-11-12T06:46:49.498Z,10.93
2022-11-12T06:49:16.734Z,11.90
2022-11-12T06:51:44.167Z,9.88
2022-11-12T06:54:11.893Z,8.57
2022-11-12T06:56:39.088Z,10.75
2022-11-12T06:59:06.267Z,10.13
2022-11-12T07:01:33.524Z,11.38
2022-11-12T07:04:00.803Z,10.40
2022-11-12T07:06:30.950Z,10.60
2022-11-12T07:08:58.149Z,10.88
2022-11-12T07:11:25.460Z,10.55
2022-11-12T07:13:52.650Z,11.82
2022-11-12T07:16:23.086Z,10.25
2022-11-12T07:18:50.355Z,9.73
2022-11-12T07:21:20.957Z,12.43
2022-11-12T07:23:50.999Z,10.18
2022-11-12T07:26:24.023Z,9.88
2022-11-12T07:28:56.659Z,12.00
2022-11-12T07:31:25.769Z,10.00
2022-11-12T07:33:53.337Z,10.98
2022-11-12T07:36:21.601Z,11.82
2022-11-12T07:38:52.491Z,10.30
2022-11-12T07:41:23.713Z,14.48
2022-11-12T07:43:52.829Z,13.50
2022-11-12T07:46:26.335Z,11.00
2022-11-12T07:51:25.015Z,8.82
2022-11-12T07:53:58.984Z,10.05
2022-11-12T07:56:27.894Z,9.30
2022-11-12T07:58:55.627Z,10.65
2022-11-12T08:01:39.793Z,9.00
2022-11-12T08:04:14.114Z,10.68
2022-11-12T08:06:43.716Z,9.73
2022-11-12T08:09:11.481Z,9.32
2022-11-12T08:11:38.675Z,11.07
2022-11-12T08:14:06.330Z,12.63
2022-11-12T08:16:33.684Z,10.82
2022-11-12T08:19:01.923Z,10.35
2022-11-12T08:21:29.132Z,10.65
2022-11-12T08:23:56.343Z,10.02
2022-11-12T08:26:24.059Z,10.57
2022-11-12T08:28:53.427Z,11.68
2022-11-12T08:31:25.279Z,9.45
2022-11-12T08:33:55.414Z,10.48
2022-11-12T08:36:23.074Z,11.90
2022-11-12T08:38:53.324Z,10.65
2022-11-12T08:41:20.509Z,9.95
2022-11-12T08:43:48.140Z,7.85
2022-11-12T08:46:15.314Z,11.05
2022-11-12T08:48:42.996Z,9.68
2022-11-12T08:51:10.242Z,8.73
2022-11-12T08:53:42.308Z,8.20
2022-11-12T08:56:09.904Z,7.35
2022-11-12T08:58:37.125Z,8.43
2022-11-12T09:01:07.095Z,8.25
2022-11-12T09:03:37.134Z,6.88
2022-11-12T09:06:05.848Z,9.30
2022-11-12T09:08:42.101Z,6.85
2022-11-12T09:11:09.757Z,8.57
2022-11-12T09:13:37.000Z,7.63
2022-11-12T09:16:07.873Z,7.72
2022-11-12T09:18:37.307Z,7.25
2022-11-12T09:21:06.862Z,8.80
2022-11-12T09:23:35.886Z,8.82
2022-11-12T09:26:04.679Z,8.40
2022-11-12T09:28:32.377Z,8.77
2022-11-12T09:31:02.931Z,8.45
2022-11-12T09:33:32.484Z,9.18
2022-11-12T09:36:03.534Z,10.00
2022-11-12T09:38:31.358Z,7.95
2022-11-12T09:41:19.182Z,9.35
2022-11-12T09:43:58.590Z,9.80
2022-11-12T09:46:33.542Z,8.70
2022-11-12T09:49:18.359Z,8.70
2022-11-12T09:52:17.205Z,7.10
2022-11-12T09:54:45.019Z,6.85
2022-11-12T09:57:15.497Z,6.43
2022-11-12T09:59:45.491Z,6.90
2022-11-12T10:02:27.809Z,6.75
2022-11-12T10:05:43.181Z,5.53
2022-11-12T10:08:32.003Z,6.43
2022-11-12T10:11:18.704Z,7.22
2022-11-12T10:14:07.503Z,7.40
2022-11-12T10:16:45.113Z,6.25
2022-11-12T10:19:40.320Z,7.80
2022-11-12T10:22:56.238Z,6.03
2022-11-12T10:25:25.156Z,8.18
2022-11-12T10:27:55.845Z,8.10
2022-11-12T10:30:25.190Z,5.68
2022-11-12T10:32:53.367Z,5.57
2022-11-12T10:35:23.594Z,5.50
2022-11-12T10:38:06.563Z,5.80
2022-11-12T10:40:36.364Z,6.63
2022-11-12T10:43:15.494Z,5.35
2022-11-12T10:45:47.559Z,7.07
2022-11-12T10:48:27.460Z,6.28
2022-11-12T10:50:55.607Z,6.07
2022-11-12T10:53:54.714Z,6.20
2022-11-12T10:56:30.385Z,8.00
2022-11-12T10:59:25.337Z,6.90
2022-11-12T11:02:01.020Z,5.95
2022-11-12T11:04:36.569Z,5.97
2022-11-12T11:07:27.589Z,7.05
2022-11-12T11:10:00.843Z,5.88
2022-11-12T11:12:31.003Z,6.18
2022-11-12T11:15:16.123Z,5.65
2022-11-12T11:17:43.345Z,7.10
2022-11-12T11:20:23.037Z,7.22
2022-11-12T11:22:57.590Z,5.50
2022-11-12T11:25:28.474Z,10.50
2022-11-12T11:28:26.656Z,6.72
2022-11-12T11:31:10.738Z,5.28
2022-11-12T11:33:48.490Z,7.22
2022-11-12T11:36:34.297Z,5.63
2022-11-12T11:39:18.730Z,7.43
2022-11-12T11:42:11.137Z,4.13
2022-11-12T11:45:09.902Z,4.93
2022-11-12T11:48:01.209Z,5.57
2022-11-12T11:50:39.967Z,4.60
2022-11-12T11:53:30.131Z,6.13
2022-11-12T11:56:09.878Z,4.85
2022-11-12T11:58:59.082Z,5.30
2022-11-12T12:01:31.406Z,8.15
2022-11-12T12:04:27.671Z,4.35
2022-11-12T12:06:58.372Z,4.32
2022-11-12T12:09:38.740Z,7.32
2022-11-12T12:12:39.079Z,5.13
2022-11-12T12:15:49.494Z,4.05
2022-11-12T12:18:47.962Z,6.15
2022-11-12T12:21:21.390Z,4.32
2022-11-12T12:24:02.541Z,4.72
2022-11-12T12:26:57.489Z,7.30
2022-11-12T12:29:42.089Z,5.65
2022-11-12T12:32:31.778Z,4.97
2022-11-12T12:35:03.949Z,6.25
2022-11-12T12:37:41.182Z,5.13
2022-11-12T12:40:23.147Z,4.43
2022-11-12T12:43:01.413Z,3.03
2022-11-12T12:45:38.792Z,6.82
2022-11-12T12:48:23.964Z,4.35
2022-11-12T12:50:53.143Z,3.92
2022-11-12T12:53:33.730Z,3.90
2022-11-12T12:56:03.990Z,3.50
2022-11-12T12:58:40.225Z,6.38
2022-11-12T13:01:22.569Z,3.58
2022-11-12T13:04:00.272Z,4.25
2022-11-12T13:06:50.135Z,3.63
2022-11-12T13:09:24.001Z,6.05
2022-11-12T13:12:06.918Z,4.63
2022-11-12T13:14:37.554Z,7.97
2022-11-12T13:17:08.364Z,5.00
2022-11-12T13:19:53.826Z,4.90
2022-11-12T13:22:26.249Z,4.65
2022-11-12T13:25:16.989Z,5.83
2022-11-12T13:27:44.799Z,5.57
2022-11-12T13:30:15.093Z,2.72
2022-11-12T13:32:44.775Z,4.95
2022-11-12T13:35:22.267Z,3.55
2022-11-12T13:38:12.063Z,3.45
2022-11-12T13:41:15.618Z,4.40
2022-11-12T13:43:47.181Z,3.60
2022-11-12T13:46:26.587Z,3.40
2022-11-12T13:49:11.026Z,4.32
2022-11-12T13:51:41.245Z,4.93
2022-11-12T13:54:43.628Z,3.53
2022-11-12T13:57:27.981Z,3.20
2022-11-12T14:00:31.246Z,5.82
2022-11-12T14:03:06.259Z,5.30
2022-11-12T14:05:35.626Z,4.85
2022-11-12T14:08:21.208Z,4.75
2022-11-12T14:11:16.944Z,4.55
2022-11-12T14:14:03.146Z,5.88
2022-11-12T14:16:52.350Z,4.60
2022-11-12T14:19:38.869Z,4.93
2022-11-12T14:22:18.905Z,5.60
2022-11-12T14:24:49.504Z,2.88
2022-11-12T14:27:31.953Z,2.88
2022-11-12T14:30:26.753Z,3.30
2022-11-12T14:33:19.017Z,2.55
2022-11-12T14:35:46.923Z,1.88
2022-11-12T14:38:37.028Z,2.83
2022-11-12T14:41:10.042Z,3.50
2022-11-12T14:43:43.334Z,3.78
2022-11-12T14:49:16.847Z,2.88
2022-11-12T14:51:51.822Z,4.45
2022-11-12T14:54:31.054Z,3.90
2022-11-12T14:57:00.854Z,3.20
2022-11-12T14:59:28.532Z,3.55
2022-11-12T15:02:37.329Z,4.00
2022-11-12T15:07:50.701Z,4.57
2022-11-12T15:10:35.369Z,3.53
2022-11-12T15:13:24.126Z,3.15
2022-11-12T15:16:03.097Z,5.15
2022-11-12T15:18:35.011Z,8.55
2022-11-12T15:21:15.099Z,6.50
2022-11-12T15:23:53.549Z,2.75
2022-11-12T15:26:34.714Z,4.28
2022-11-12T15:29:15.351Z,3.63
2022-11-12T15:31:54.903Z,4.35
2022-11-12T15:34:35.071Z,2.58
2022-11-12T15:37:07.060Z,3.42
2022-11-12T15:39:40.443Z,2.95
2022-11-12T15:42:23.083Z,3.22
2022-11-12T15:44:55.753Z,4.00
2022-11-12T15:47:23.475Z,3.43
2022-11-12T15:49:56.038Z,3.53
2022-11-12T15:52:23.457Z,4.30
2022-11-12T15:54:51.097Z,4.43
2022-11-12T15:57:31.185Z,3.53
2022-11-12T16:00:08.458Z,4.55
2022-11-12T16:02:36.043Z,4.18
2022-11-12T16:05:06.980Z,4.68
2022-11-12T16:07:34.168Z,3.60
2022-11-12T16:10:01.386Z,3.60
2022-11-12T16:12:29.340Z,8.13
2022-11-12T16:14:56.724Z,5.40
2022-11-12T16:17:24.100Z,4.03
2022-11-12T16:19:53.555Z,3.70
2022-11-12T16:22:20.724Z,4.10
2022-11-12T16:24:48.020Z,2.92
2022-11-12T16:27:18.117Z,5.63
2022-11-12T16:29:45.784Z,6.22
2022-11-12T16:32:14.107Z,3.15
2022-11-12T16:34:43.475Z,5.60
2022-11-12T16:37:12.934Z,3.53
2022-11-12T16:39:40.392Z,4.40
2022-11-12T16:42:10.305Z,3.60
2022-11-12T16:44:39.962Z,8.10
2022-11-12T16:47:10.867Z,6.32
2022-11-12T16:49:39.016Z,8.80
2022-11-12T16:52:08.658Z,6.57
2022-11-12T16:54:35.910Z,4.18
2022-11-12T16:57:05.746Z,10.75
2022-11-12T16:59:32.944Z,5.40
2022-11-12T17:02:00.759Z,5.43
2022-11-12T17:04:30.202Z,4.13
2022-11-12T17:06:59.956Z,6.68
2022-11-12T17:09:30.173Z,9.65
2022-11-12T17:11:57.338Z,8.77
2022-11-12T17:14:28.294Z,13.25
2022-11-12T17:16:56.552Z,8.63
2022-11-12T17:19:26.242Z,6.90
2022-11-12T17:21:56.861Z,9.15
2022-11-12T17:24:29.376Z,8.63
2022-11-12T17:26:57.481Z,10.52
2022-11-12T17:29:24.666Z,7.45
2022-11-12T17:31:56.546Z,9.32
2022-11-12T17:34:26.536Z,7.38
2022-11-12T17:36:54.532Z,8.43
2022-11-12T17:39:22.235Z,10.65
2022-11-12T17:41:49.739Z,9.23
2022-11-12T17:44:18.827Z,8.02
2022-11-12T17:46:47.372Z,10.32
2022-11-12T17:49:15.334Z,8.60
2022-11-12T17:51:45.283Z,9.88
2022-11-12T17:54:13.419Z,10.90
2022-11-12T17:56:40.646Z,10.52
2022-11-12T17:59:09.982Z,7.60
2022-11-12T18:01:37.889Z,7.55
2022-11-12T18:04:05.442Z,8.00
2022-11-12T18:06:35.949Z,7.90
2022-11-12T18:09:15.718Z,7.03
2022-11-12T18:11:54.679Z,6.85
2022-11-12T18:14:23.106Z,9.07
2022-11-12T18:16:51.182Z,6.68
2022-11-12T18:19:18.482Z,9.05
2022-11-12T18:21:46.787Z,9.10
2022-11-12T18:24:16.000Z,6.57
2022-11-12T18:26:44.407Z,10.20
2022-11-12T18:29:12.551Z,8.48
2022-11-12T18:31:43.503Z,6.65
2022-11-12T18:34:14.977Z,8.13
2022-11-12T18:36:42.768Z,8.18
2022-11-12T18:39:10.027Z,5.18
2022-11-12T18:41:37.493Z,6.53
2022-11-12T18:44:07.621Z,6.57
2022-11-12T18:46:39.449Z,8.05
2022-11-12T18:49:09.133Z,7.38
2022-11-12T18:51:36.422Z,4.82
2022-11-12T18:54:03.988Z,6.82
2022-11-12T18:56:32.023Z,5.80
2022-11-12T18:58:59.648Z,7.80
2022-11-12T19:01:26.981Z,6.35
2022-11-12T19:03:56.151Z,6.05
2022-11-12T19:06:25.015Z,11.13
2022-11-12T19:08:58.140Z,13.93
2022-11-12T19:11:25.631Z,12.52
2022-11-12T19:13:54.328Z,12.30
2022-11-12T19:16:22.935Z,12.50
2022-11-12T19:18:51.641Z,12.63
2022-11-12T19:21:22.079Z,11.63
2022-11-12T19:23:53.866Z,11.10
2022-11-12T19:26:24.372Z,9.60
2022-11-12T19:28:51.989Z,10.43
2022-11-12T19:31:21.458Z,10.13
2022-11-12T19:33:49.513Z,8.40
2022-11-12T19:36:19.462Z,11.75
2022-11-12T19:38:46.948Z,13.32
2022-11-12T19:41:19.804Z,10.93
2022-11-12T19:43:48.204Z,11.23
2022-11-12T19:46:15.657Z,8.13
2022-11-12T19:48:43.457Z,7.85
2022-11-12T19:51:12.067Z,7.78
2022-11-12T19:53:44.318Z,7.43
2022-11-12T19:56:14.062Z,6.30
2022-11-12T19:58:46.036Z,5.40
2022-11-12T20:01:16.779Z,6.53
2022-11-12T20:03:46.449Z,6.40
2022-11-12T20:06:21.267Z,6.07
2022-11-12T20:08:53.377Z,4.95
2022-11-12T20:11:21.276Z,8.30
2022-11-12T20:13:48.929Z,9.10
2022-11-12T20:16:23.890Z,8.10
2022-11-12T20:18:54.855Z,7.70
2022-11-12T20:21:23.584Z,7.50
2022-11-12T20:23:51.286Z,7.55
2022-11-12T20:26:18.545Z,9.80
2022-11-12T20:28:45.781Z,7.03
2022-11-12T20:31:15.233Z,8.18
2022-11-12T20:33:44.931Z,8.77
2022-11-12T20:36:14.391Z,7.30
2022-11-12T20:38:44.088Z,9.10
2022-11-12T20:41:24.703Z,9.13
2022-11-12T20:43:53.504Z,6.90
2022-11-12T20:46:21.085Z,5.70
2022-11-12T20:48:50.712Z,6.30
2022-11-12T20:51:25.041Z,5.55
2022-11-12T20:53:58.975Z,6.03
2022-11-12T20:56:29.009Z,7.65
2022-11-12T20:58:59.708Z,6.45
2022-11-12T21:01:29.478Z,6.30
2022-11-12T21:03:59.760Z,7.93
2022-11-12T21:06:29.381Z,8.35
2022-11-12T21:09:02.437Z,6.88
2022-11-12T21:11:30.364Z,7.10
2022-11-12T21:14:00.677Z,8.63
2022-11-12T21:16:27.986Z,11.70
2022-11-12T21:18:55.200Z,14.70
2022-11-12T21:21:22.519Z,14.30
2022-11-12T21:23:50.482Z,15.73
2022-11-12T21:26:20.421Z,13.07
2022-11-12T21:28:56.753Z,7.20
2022-11-12T21:31:29.611Z,8.23
2022-11-12T21:34:03.516Z,10.02
2022-11-12T21:36:32.268Z,7.43
2022-11-12T21:38:59.972Z,11.52
2022-11-12T21:41:32.034Z,15.27
2022-11-12T21:43:59.936Z,13.02
2022-11-12T21:46:32.328Z,17.08
2022-11-12T21:48:59.561Z,15.60
2022-11-12T21:51:29.129Z,15.93
2022-11-12T21:54:01.838Z,13.68
2022-11-12T21:56:30.182Z,15.20
2022-11-12T21:59:00.302Z,15.85
2022-11-12T22:01:32.683Z,19.60
2022-11-12T22:04:05.998Z,20.08
2022-11-12T22:06:37.268Z,17.63
2022-11-12T22:09:07.365Z,13.60
2022-11-12T22:11:34.859Z,18.05
2022-11-12T22:14:02.307Z,16.55
2022-11-12T22:16:32.492Z,19.50
2022-11-12T22:19:00.751Z,17.23
2022-11-12T22:21:38.354Z,17.63
2022-11-12T22:24:07.982Z,15.10
2022-11-12T22:26:35.818Z,16.25
2022-11-12T22:29:03.942Z,15.77
2022-11-12T22:31:34.489Z,16.23
2022-11-12T22:34:03.378Z,14.88
2022-11-12T22:36:31.687Z,13.88
2022-11-12T22:38:58.997Z,14.90
2022-11-12T22:41:29.216Z,14.40
2022-11-12T22:44:01.723Z,11.85
2022-11-12T22:46:33.627Z,12.73
2022-11-12T22:49:02.529Z,14.75
2022-11-12T22:51:34.474Z,14.40
2022-11-12T22:54:05.280Z,14.38
2022-11-12T22:56:35.955Z,16.30
2022-11-12T22:59:04.813Z,16.00
2022-11-12T23:01:34.732Z,16.52
2022-11-12T23:04:04.893Z,19.48
2022-11-12T23:06:34.848Z,17.00
2022-11-12T23:09:02.641Z,14.75
2022-11-12T23:11:32.372Z,17.05
2022-11-12T23:14:04.267Z,16.08
2022-11-12T23:16:31.509Z,16.48
2022-11-12T23:18:59.541Z,12.50
2022-11-12T23:21:30.261Z,12.45
2022-11-12T23:24:00.539Z,14.30
2022-11-12T23:26:33.507Z,14.65
2022-11-12T23:29:04.023Z,14.90
2022-11-12T23:31:32.389Z,14.75
2022-11-12T23:34:00.928Z,18.70
2022-11-12T23:36:29.850Z,15.95
2022-11-12T23:39:00.841Z,15.68
2022-11-12T23:41:28.229Z,15.02
2022-11-12T23:44:01.796Z,13.65
2022-11-12T23:48:56.532Z,19.20
2022-11-12T23:51:26.365Z,16.58
2022-11-12T23:53:53.694Z,12.75
2022-11-12T23:56:20.954Z,18.70
2022-11-12T23:58:48.664Z,15.80
